Time;durP1;ratioP1;P1;durP2;ratioP2;P2;SDS_P1;SDS_P2;PMS_P1;PMS_P2;Temp;Humidity;BMP_temperature;BMP_pressure;BME280_temperature;BME280_humidity;BME280_pressure;Samples;Min_cycle;Max_cycle;Signal;HPM_P1;HPM_P2
2022/07/13 00:00:11;;;;;;;12.32;8.40;;;20.20;99.90;;;;;;5044264;28;20041;-29
2022/07/13 00:02:37;;;;;;;8.77;8.18;;;20.20;99.90;;;;;;5051091;28;20390;-29
2022/07/13 00:05:03;;;;;;;9.50;8.63;;;20.10;99.90;;;;;;5045332;28;20044;-29
2022/07/13 00:07:29;;;;;;;8.27;7.68;;;20.10;99.90;;;;;;5050493;28;20068;-29
2022/07/13 00:09:55;;;;;;;9.25;8.55;;;20.10;99.90;;;;;;5050535;28;20497;-29
2022/07/13 00:12:20;;;;;;;8.07;7.43;;;20.10;99.90;;;;;;5050840;28;20041;-28
2022/07/13 00:14:46;;;;;;;9.45;8.75;;;20.10;99.90;;;;;;5049883;28;20047;-29
2022/07/13 00:17:12;;;;;;;8.93;8.27;;;20.10;99.90;;;;;;5049665;28;20040;-29
2022/07/13 00:19:37;;;;;;;9.30;8.45;;;20.10;99.90;;;;;;5047471;28;20086;-29
2022/07/13 00:22:03;;;;;;;10.40;9.50;;;20.10;99.90;;;;;;5051044;28;20417;-29
2022/07/13 00:24:28;;;;;;;9.20;8.40;;;20.00;99.90;;;;;;5050062;28;20405;-28
2022/07/13 00:26:54;;;;;;;9.00;8.30;;;20.00;99.90;;;;;;5049929;28;20041;-29
2022/07/13 00:29:20;;;;;;;9.68;8.88;;;20.00;99.90;;;;;;5032747;28;20076;-28
2022/07/13 00:31:46;;;;;;;9.85;8.98;;;20.00;99.90;;;;;;5050322;28;20510;-29
2022/07/13 00:34:13;;;;;;;11.25;10.23;;;20.00;99.90;;;;;;5032444;28;20493;-28
2022/07/13 00:36:39;;;;;;;10.80;9.75;;;20.00;99.90;;;;;;5050535;28;20067;-29
2022/07/13 00:39:05;;;;;;;11.07;9.98;;;20.00;99.90;;;;;;5050239;28;20045;-29
2022/07/13 00:41:31;;;;;;;11.38;10.10;;;20.00;99.90;;;;;;5050636;28;20160;-29
2022/07/13 00:44:07;;;;;;;10.27;9.38;;;20.00;99.90;;;;;;5050881;28;20029;-29
2022/07/13 00:46:34;;;;;;;10.38;9.48;;;20.00;99.90;;;;;;5043844;28;20033;-29
2022/07/13 00:49:00;;;;;;;12.60;11.52;;;20.00;99.90;;;;;;5048958;28;20037;-29
2022/07/13 00:51:27;;;;;;;11.10;10.13;;;20.00;99.90;;;;;;5045953;28;20045;-29
2022/07/13 00:53:53;;;;;;;11.27;10.38;;;20.00;99.90;;;;;;5050440;28;20520;-28
2022/07/13 00:56:20;;;;;;;11.20;10.23;;;20.00;99.90;;;;;;5044936;28;20112;-29
2022/07/13 00:58:46;;;;;;;11.15;10.32;;;20.00;99.90;;;;;;5049667;28;20037;-29
2022/07/13 01:01:11;;;;;;;10.48;9.57;;;20.00;99.90;;;;;;5051149;28;20045;-29
2022/07/13 01:03:37;;;;;;;11.48;10.48;;;20.00;99.90;;;;;;5049714;28;20485;-29
2022/07/13 01:06:05;;;;;;;11.38;10.43;;;19.90;99.90;;;;;;5049758;28;20072;-28
2022/07/13 01:08:31;;;;;;;13.45;12.23;;;19.90;99.90;;;;;;5044332;28;20401;-29
2022/07/13 01:10:57;;;;;;;12.85;11.77;;;19.90;99.90;;;;;;5046469;28;20445;-29
2022/07/13 01:13:23;;;;;;;12.50;11.40;;;20.00;99.90;;;;;;5050389;28;20108;-28
2022/07/13 01:15:49;;;;;;;14.13;12.85;;;20.00;99.90;;;;;;5040072;28;20044;-29
2022/07/13 01:18:15;;;;;;;12.70;11.70;;;20.00;99.90;;;;;;5049408;28;20041;-29
2022/07/13 01:20:41;;;;;;;13.88;12.77;;;20.00;99.90;;;;;;5049546;28;20045;-29
2022/07/13 01:23:15;;;;;;;12.43;11.52;;;20.00;99.90;;;;;;5031880;28;20056;-29
2022/07/13 01:25:41;;;;;;;11.95;10.95;;;20.00;99.90;;;;;;5050032;28;20041;-29
2022/07/13 01:28:07;;;;;;;13.13;11.90;;;20.00;99.90;;;;;;5050251;28;20106;-29
2022/07/13 01:30:33;;;;;;;12.68;11.68;;;20.00;99.90;;;;;;5050391;28;20033;-29
2022/07/13 01:32:59;;;;;;;12.98;11.88;;;20.00;99.90;;;;;;5050001;28;20032;-29
2022/07/13 01:35:25;;;;;;;12.68;11.57;;;20.00;99.90;;;;;;5044302;28;20091;-29
2022/07/13 01:37:54;;;;;;;13.07;12.07;;;20.00;99.90;;;;;;5052755;28;20025;-29
2022/07/13 01:40:20;;;;;;;12.90;11.85;;;20.10;99.90;;;;;;5045795;28;20342;-29
2022/07/13 01:42:48;;;;;;;13.50;12.20;;;20.10;99.90;;;;;;5052238;28;20842;-29
2022/07/13 01:45:16;;;;;;;12.38;11.38;;;20.00;99.90;;;;;;5052578;28;20181;-29
2022/07/13 01:47:44;;;;;;;11.35;10.45;;;20.10;99.90;;;;;;5053654;28;20052;-29
2022/07/13 01:50:11;;;;;;;11.75;10.75;;;20.10;99.90;;;;;;5047339;28;20047;-28
2022/07/13 01:52:37;;;;;;;11.18;10.18;;;20.10;99.90;;;;;;5053833;28;20048;-29
2022/07/13 01:55:05;;;;;;;11.80;10.70;;;20.10;99.90;;;;;;5046370;28;20418;-30
2022/07/13 01:57:31;;;;;;;11.75;10.75;;;20.10;99.90;;;;;;5046224;28;20467;-36
2022/07/13 02:00:02;;;;;;;11.88;10.70;;;20.10;99.90;;;;;;5034512;28;20049;-29
2022/07/13 02:02:28;;;;;;;11.55;10.43;;;20.10;99.90;;;;;;5052312;28;20429;-28
2022/07/13 02:04:54;;;;;;;11.98;10.88;;;20.10;99.90;;;;;;5052292;28;20108;-29
2022/07/13 02:07:21;;;;;;;10.57;9.68;;;20.10;99.90;;;;;;5047125;28;20040;-29
2022/07/13 02:09:47;;;;;;;10.75;9.65;;;20.10;99.90;;;;;;5050737;28;20553;-28
2022/07/13 02:12:13;;;;;;;10.60;9.73;;;20.10;99.90;;;;;;5051107;28;20176;-29
2022/07/13 02:14:39;;;;;;;11.18;10.18;;;20.10;99.90;;;;;;5051767;28;20115;-29
2022/07/13 02:17:07;;;;;;;11.63;10.57;;;20.20;99.90;;;;;;5051389;28;20037;-29
2022/07/13 02:19:33;;;;;;;12.75;11.55;;;20.20;99.90;;;;;;5045448;28;20079;-29
2022/07/13 02:22:01;;;;;;;11.93;10.95;;;20.10;99.90;;;;;;5049776;28;20069;-29
2022/07/13 02:24:27;;;;;;;12.70;11.60;;;20.10;99.90;;;;;;5046922;28;20120;-29
2022/07/13 02:26:53;;;;;;;12.63;11.38;;;20.10;99.90;;;;;;5030791;28;20068;-29
2022/07/13 02:29:18;;;;;;;12.50;11.43;;;20.10;99.90;;;;;;5049741;28;20102;-29
2022/07/13 02:31:44;;;;;;;12.07;10.98;;;20.10;99.90;;;;;;5034579;28;20486;-28
2022/07/13 02:34:10;;;;;;;11.68;10.65;;;20.10;99.90;;;;;;5050652;28;20045;-29
2022/07/13 02:36:36;;;;;;;12.50;10.60;;;20.10;99.90;;;;;;5050678;28;20029;-29
2022/07/13 02:39:03;;;;;;;11.82;10.80;;;20.10;99.90;;;;;;5051264;28;20124;-29
2022/07/13 02:41:29;;;;;;;11.35;10.35;;;20.10;99.90;;;;;;5052146;28;20037;-29
2022/07/13 02:43:58;;;;;;;11.07;10.18;;;20.10;99.90;;;;;;5050932;28;20090;-29
2022/07/13 02:46:24;;;;;;;11.70;9.98;;;20.10;99.90;;;;;;5051467;28;20501;-29
2022/07/13 02:48:50;;;;;;;11.32;10.30;;;20.10;99.90;;;;;;5048459;28;20041;-29
2022/07/13 02:51:15;;;;;;;11.35;10.30;;;20.10;99.90;;;;;;5048962;28;20044;-29
2022/07/13 02:53:41;;;;;;;10.65;9.75;;;20.10;99.90;;;;;;5047096;28;20120;-29
2022/07/13 02:56:07;;;;;;;11.00;10.05;;;20.10;99.90;;;;;;5050050;28;20044;-29
2022/07/13 02:58:33;;;;;;;10.60;9.70;;;20.10;99.90;;;;;;5049155;28;20037;-29
2022/07/13 03:00:59;;;;;;;11.68;10.68;;;20.20;99.90;;;;;;5049676;28;20071;-29
2022/07/13 03:03:24;;;;;;;12.30;11.15;;;20.10;99.90;;;;;;5051978;28;20037;-29
2022/07/13 03:05:53;;;;;;;12.07;10.90;;;20.10;99.90;;;;;;5052234;28;20043;-28
2022/07/13 03:10:47;;;;;;;11.48;10.55;;;20.10;99.90;;;;;;5090000;22;20036;-34
2022/07/13 03:13:13;;;;;;;12.50;11.30;;;20.10;99.90;;;;;;5076302;28;20045;-36
2022/07/13 03:15:38;;;;;;;12.27;11.20;;;20.00;99.90;;;;;;5089600;28;20210;-33
2022/07/13 03:18:08;;;;;;;12.18;11.07;;;20.00;99.90;;;;;;5085494;22;20068;-91
2022/07/13 03:21:20;;;;;;;;;;;;;;;;;;;;;
2022/07/13 03:24:00;;;;;;;12.15;11.10;;;20.10;99.90;;;;;;5016124;28;20037;-89
2022/07/13 03:26:42;;;;;;;12.00;10.90;;;20.00;99.90;;;;;;5045790;28;20122;-89
2022/07/13 03:29:18;;;;;;;12.45;11.35;;;20.00;99.90;;;;;;5040549;28;20483;-89
2022/07/13 03:39:16;;;;;;;12.60;11.40;;;19.90;99.90;;;;;;5032699;22;20122;-31
2022/07/13 03:41:41;;;;;;;13.35;12.07;;;20.00;99.90;;;;;;5053778;28;20044;-31
2022/07/13 03:44:07;;;;;;;12.23;11.18;;;19.90;99.90;;;;;;5060644;28;20499;-31
2022/07/13 03:46:33;;;;;;;11.32;10.32;;;19.90;99.90;;;;;;5066006;28;20045;-31
2022/07/13 03:48:59;;;;;;;11.48;10.57;;;19.90;99.90;;;;;;5064917;28;20058;-31
2022/07/13 03:51:24;;;;;;;11.95;10.85;;;19.90;99.90;;;;;;5071650;28;20076;-30
2022/07/13 03:53:50;;;;;;;12.10;11.00;;;19.80;99.90;;;;;;5071767;28;20048;-31
2022/07/13 03:56:16;;;;;;;12.43;11.38;;;19.90;99.90;;;;;;5071833;28;20354;-30
2022/07/13 03:58:41;;;;;;;12.73;11.52;;;19.90;99.90;;;;;;5053512;28;20067;-30
2022/07/13 04:01:07;;;;;;;12.48;11.48;;;19.90;99.90;;;;;;5071692;28;20119;-31
2022/07/13 04:03:33;;;;;;;12.93;11.73;;;19.90;99.90;;;;;;5071609;28;20059;-31
2022/07/13 04:05:59;;;;;;;12.85;11.55;;;19.90;99.90;;;;;;5053674;28;20045;-31
2022/07/13 04:08:24;;;;;;;12.63;11.32;;;19.90;99.90;;;;;;5071591;28;20032;-31
2022/07/13 04:10:50;;;;;;;13.05;11.95;;;19.90;99.90;;;;;;5053724;28;20082;-30
2022/07/13 04:13:16;;;;;;;12.80;11.48;;;20.00;99.90;;;;;;5071858;28;20032;-30
2022/07/13 04:15:41;;;;;;;12.32;11.25;;;20.00;99.90;;;;;;5071332;28;20047;-30
2022/07/13 04:18:07;;;;;;;12.85;11.50;;;20.00;99.90;;;;;;5036878;28;20048;-31
2022/07/13 04:20:33;;;;;;;11.65;10.68;;;20.00;99.90;;;;;;5071387;28;20478;-30
2022/07/13 04:22:59;;;;;;;11.60;10.60;;;20.00;99.90;;;;;;5071693;28;20527;-32
2022/07/13 04:25:25;;;;;;;11.75;10.65;;;20.10;99.90;;;;;;5053356;28;20501;-30
2022/07/13 04:27:50;;;;;;;11.85;10.82;;;20.10;99.90;;;;;;5053161;28;20068;-31
2022/07/13 04:30:16;;;;;;;11.52;10.40;;;20.10;99.90;;;;;;5071252;28;20047;-30
2022/07/13 04:32:45;;;;;;;11.88;10.60;;;20.10;99.90;;;;;;5046726;28;20142;-31
2022/07/13 04:35:10;;;;;;;11.50;10.40;;;20.20;99.90;;;;;;5070025;28;20069;-31
2022/07/13 04:37:36;;;;;;;11.68;10.60;;;20.20;99.90;;;;;;5071141;28;20850;-30
2022/07/13 04:40:02;;;;;;;10.45;9.55;;;20.20;99.90;;;;;;5052795;28;20094;-31
2022/07/13 04:42:27;;;;;;;11.88;10.88;;;20.20;99.90;;;;;;5053049;28;20382;-30
2022/07/13 04:44:53;;;;;;;11.38;10.27;;;20.20;99.90;;;;;;5053270;28;20036;-31
2022/07/13 04:50:24;;;;;;;11.15;9.98;;;20.30;99.90;;;;;;5059014;28;20115;-28
2022/07/13 04:52:50;;;;;;;10.68;9.57;;;20.30;99.90;;;;;;5060501;28;20179;-30
2022/07/13 04:55:16;;;;;;;9.73;8.77;;;20.30;99.90;;;;;;5067450;28;20123;-29
2022/07/13 04:57:42;;;;;;;10.45;9.50;;;20.40;99.90;;;;;;5060405;28;20405;-29
2022/07/13 05:00:09;;;;;;;10.38;9.55;;;20.40;99.90;;;;;;5063650;28;20032;-29
2022/07/13 05:02:35;;;;;;;9.77;8.88;;;20.40;99.90;;;;;;5057331;28;20036;-30
2022/07/13 05:05:02;;;;;;;10.48;9.48;;;20.40;99.90;;;;;;5051128;28;20481;-30
2022/07/13 05:07:29;;;;;;;10.07;9.07;;;20.50;99.90;;;;;;5052962;28;20472;-32
2022/07/13 05:09:55;;;;;;;10.10;9.10;;;20.50;99.90;;;;;;5058674;28;20039;-29
2022/07/13 05:12:20;;;;;;;9.40;8.60;;;20.50;99.90;;;;;;5060577;28;20082;-29
2022/07/13 05:14:46;;;;;;;8.63;7.93;;;20.60;99.90;;;;;;5064113;28;20412;-30
2022/07/13 05:17:12;;;;;;;10.43;8.40;;;20.60;99.90;;;;;;5062201;28;20381;-30
2022/07/13 05:19:38;;;;;;;9.05;8.15;;;20.70;99.90;;;;;;5058895;28;20102;-30
2022/07/13 05:22:04;;;;;;;9.18;8.27;;;20.70;99.90;;;;;;5062685;28;20064;-30
2022/07/13 05:24:30;;;;;;;8.57;7.88;;;20.80;99.90;;;;;;5062532;28;20033;-29
2022/07/13 05:26:55;;;;;;;9.23;8.40;;;20.80;99.90;;;;;;5058306;28;20107;-30
2022/07/13 05:29:21;;;;;;;9.48;8.57;;;20.90;99.90;;;;;;5060875;28;20028;-30
2022/07/13 05:31:47;;;;;;;9.65;8.82;;;20.90;99.90;;;;;;5058442;28;20120;-29
2022/07/13 05:34:12;;;;;;;9.35;8.55;;;21.00;99.90;;;;;;5065595;28;20095;-30
2022/07/13 05:36:38;;;;;;;9.15;8.32;;;21.00;99.90;;;;;;5046582;28;20509;-30
2022/07/13 05:39:04;;;;;;;8.60;7.80;;;21.10;99.90;;;;;;5060839;28;20029;-30
2022/07/13 05:41:32;;;;;;;8.82;8.02;;;21.20;99.90;;;;;;5062350;28;20067;-31
2022/07/13 05:43:59;;;;;;;8.07;7.38;;;21.20;99.90;;;;;;5055847;28;20051;-30
2022/07/13 05:46:26;;;;;;;7.88;7.07;;;21.30;99.90;;;;;;5063132;28;20032;-30
2022/07/13 05:48:51;;;;;;;7.85;6.97;;;21.30;99.90;;;;;;5059743;28;20037;-29
2022/07/13 05:51:17;;;;;;;7.55;6.30;;;21.40;99.90;;;;;;5068909;28;20055;-30
2022/07/13 05:53:43;;;;;;;7.05;6.38;;;21.40;99.90;;;;;;5069290;28;20075;-31
2022/07/13 05:56:09;;;;;;;6.47;5.88;;;21.50;99.90;;;;;;5058663;28;20033;-30
2022/07/13 05:58:35;;;;;;;6.15;5.55;;;21.60;99.90;;;;;;5066377;28;20123;-30
2022/07/13 06:01:00;;;;;;;7.00;6.25;;;21.60;99.90;;;;;;5067702;28;20039;-30
2022/07/13 06:03:26;;;;;;;6.35;5.65;;;21.80;99.90;;;;;;5061597;28;20149;-30
2022/07/13 06:05:52;;;;;;;7.18;5.70;;;21.80;99.90;;;;;;5058673;28;20025;-29
2022/07/13 06:08:18;;;;;;;5.97;5.32;;;21.90;99.90;;;;;;5066301;28;20032;-30
2022/07/13 06:10:43;;;;;;;5.95;5.30;;;22.00;99.90;;;;;;5062516;28;20405;-30
2022/07/13 06:13:09;;;;;;;6.47;5.63;;;22.10;99.90;;;;;;5067313;28;20520;-30
2022/07/13 06:15:35;;;;;;;5.35;4.95;;;22.10;99.90;;;;;;5064333;28;20034;-32
2022/07/13 06:18:00;;;;;;;5.93;5.13;;;22.20;99.90;;;;;;5071355;28;20040;-30
2022/07/13 06:20:26;;;;;;;6.35;5.75;;;22.30;99.90;;;;;;5071769;28;20064;-31
2022/07/13 06:23:10;;;;;;;5.95;5.45;;;22.40;99.90;;;;;;5066358;28;20068;-31
2022/07/13 06:25:39;;;;;;;6.65;5.40;;;22.40;99.90;;;;;;5066625;28;20036;-30
2022/07/13 06:28:06;;;;;;;5.93;5.40;;;22.50;99.90;;;;;;5056799;28;20048;-31
2022/07/13 06:30:36;;;;;;;5.55;4.93;;;22.50;99.90;;;;;;5066063;28;20047;-30
2022/07/13 06:33:02;;;;;;;5.60;5.10;;;22.70;99.90;;;;;;5059572;28;20044;-31
2022/07/13 06:35:29;;;;;;;5.40;4.90;;;22.80;99.90;;;;;;5062992;28;20029;-30
2022/07/13 06:37:55;;;;;;;5.57;5.13;;;22.90;99.90;;;;;;5066769;28;20079;-31
2022/07/13 06:40:20;;;;;;;5.13;4.72;;;23.00;99.90;;;;;;5063591;28;20069;-31
2022/07/13 06:42:46;;;;;;;5.60;5.03;;;23.10;99.90;;;;;;5070135;28;20036;-30
2022/07/13 06:45:12;;;;;;;5.45;4.95;;;23.10;99.90;;;;;;5057388;28;20065;-30
2022/07/13 06:47:39;;;;;;;6.15;4.88;;;23.20;99.90;;;;;;5069099;28;20036;-30
2022/07/13 06:50:08;;;;;;;5.40;4.90;;;23.30;99.90;;;;;;5061737;28;20044;-30
2022/07/13 06:52:34;;;;;;;5.05;4.55;;;23.30;99.90;;;;;;5062061;28;20100;-30
2022/07/13 06:55:00;;;;;;;5.25;4.70;;;23.30;99.90;;;;;;5061331;28;20081;-30
2022/07/13 06:57:25;;;;;;;6.28;4.95;;;23.20;99.90;;;;;;5060757;28;20489;-30
2022/07/13 06:59:51;;;;;;;6.13;4.65;;;23.30;99.90;;;;;;5055239;28;20040;-32
2022/07/13 07:02:17;;;;;;;5.50;5.07;;;23.40;99.90;;;;;;5062801;28;20170;-31
2022/07/13 07:04:42;;;;;;;7.20;4.68;;;23.30;99.90;;;;;;5067801;28;20421;-31
2022/07/13 07:07:09;;;;;;;7.25;5.28;;;23.50;99.90;;;;;;5057291;28;20040;-32
2022/07/13 07:09:35;;;;;;;6.50;4.90;;;23.60;99.90;;;;;;5055819;28;20060;-30
2022/07/13 07:12:01;;;;;;;5.07;4.68;;;23.70;99.90;;;;;;5067403;28;20044;-30
2022/07/13 07:14:26;;;;;;;5.63;5.07;;;23.90;99.90;;;;;;5059557;28;20103;-29
2022/07/13 07:16:52;;;;;;;6.07;5.47;;;24.20;99.90;;;;;;5055157;28;20059;-31
2022/07/13 07:19:17;;;;;;;5.85;4.90;;;24.20;99.90;;;;;;5064359;28;20467;-31
2022/07/13 07:21:43;;;;;;;6.88;5.78;;;24.30;99.90;;;;;;5064220;28;20052;-30
2022/07/13 07:24:09;;;;;;;5.85;5.35;;;24.30;99.90;;;;;;5059963;28;20465;-31
2022/07/13 07:26:34;;;;;;;6.90;6.35;;;24.50;99.90;;;;;;5065800;28;20039;-30
2022/07/13 07:29:00;;;;;;;6.30;5.68;;;24.60;99.90;;;;;;5055547;28;20045;-31
2022/07/13 07:31:26;;;;;;;6.70;6.13;;;24.60;99.90;;;;;;5045373;28;20048;-29
2022/07/13 07:33:52;;;;;;;5.95;5.40;;;24.70;99.90;;;;;;5067912;28;20029;-31
2022/07/13 07:36:17;;;;;;;6.68;5.97;;;24.70;99.90;;;;;;5085272;28;20127;-31
2022/07/13 07:38:44;;;;;;;6.10;5.50;;;24.70;99.90;;;;;;5069588;28;20120;-30
2022/07/13 07:41:13;;;;;;;7.07;6.38;;;24.70;99.90;;;;;;5057538;28;20084;-29
2022/07/13 07:43:38;;;;;;;6.35;5.82;;;24.70;99.90;;;;;;5070609;28;20040;-31
2022/07/13 07:46:05;;;;;;;7.10;6.05;;;24.60;99.90;;;;;;5063781;28;20044;-32
2022/07/13 07:48:30;;;;;;;7.00;6.30;;;24.60;99.90;;;;;;5057756;28;20040;-30
2022/07/13 07:50:57;;;;;;;7.05;5.60;;;24.70;99.90;;;;;;5062818;28;20093;-31
2022/07/13 07:53:23;;;;;;;7.38;6.18;;;24.70;99.90;;;;;;5025466;28;20085;-30
2022/07/13 07:55:49;;;;;;;6.20;5.60;;;24.70;99.90;;;;;;5057157;28;20036;-31
2022/07/13 07:58:15;;;;;;;7.45;6.78;;;24.90;99.90;;;;;;5059382;28;20606;-31
2022/07/13 08:00:42;;;;;;;11.07;7.45;;;25.10;99.90;;;;;;5060614;28;20112;-31
2022/07/13 08:03:10;;;;;;;8.32;7.25;;;25.10;99.90;;;;;;5055811;28;20041;-31
2022/07/13 08:05:36;;;;;;;7.13;6.45;;;25.30;99.90;;;;;;5061187;28;20046;-36
2022/07/13 08:08:04;;;;;;;7.55;6.82;;;25.50;99.90;;;;;;5060806;28;20110;-30
2022/07/13 08:10:30;;;;;;;8.52;6.85;;;25.70;99.90;;;;;;5060410;28;20040;-30
2022/07/13 08:12:59;;;;;;;9.40;6.68;;;25.70;99.90;;;;;;5059934;28;20045;-32
2022/07/13 08:15:26;;;;;;;8.25;7.45;;;25.90;99.90;;;;;;5060403;28;20386;-30
2022/07/13 08:17:51;;;;;;;7.88;7.07;;;26.10;99.90;;;;;;5058887;28;20036;-31
2022/07/13 08:20:17;;;;;;;7.15;6.55;;;26.10;99.90;;;;;;5069824;28;20040;-31
2022/07/13 08:22:43;;;;;;;7.90;7.10;;;26.20;99.60;;;;;;5061452;28;20075;-32
2022/07/13 08:25:08;;;;;;;7.75;6.63;;;26.20;99.60;;;;;;5057196;28;20275;-31
2022/07/13 08:27:37;;;;;;;8.35;6.95;;;26.30;99.80;;;;;;5061748;28;20079;-30
2022/07/13 08:30:03;;;;;;;7.38;6.65;;;26.60;99.90;;;;;;5056969;28;20124;-30
2022/07/13 08:32:29;;;;;;;7.45;6.72;;;26.90;99.70;;;;;;5062203;28;20041;-29
2022/07/13 08:40:24;;;;;;;8.00;6.80;;;27.40;97.90;;;;;;5061046;28;20378;-31
2022/07/13 08:42:49;;;;;;;6.80;6.05;;;27.50;96.60;;;;;;5053381;28;20120;-31
2022/07/13 08:45:15;;;;;;;6.75;6.05;;;27.60;95.80;;;;;;5065697;28;20036;-31
2022/07/13 08:47:42;;;;;;;7.70;7.10;;;27.70;95.80;;;;;;5066372;28;20048;-29
2022/07/13 08:50:09;;;;;;;6.97;6.35;;;27.80;96.20;;;;;;5065143;28;20185;-30
2022/07/13 08:52:37;;;;;;;6.65;6.03;;;27.70;93.10;;;;;;5068035;28;20032;-30
2022/07/13 08:55:05;;;;;;;7.25;6.25;;;27.80;93.80;;;;;;5061177;28;20044;-31
2022/07/13 08:57:38;;;;;;;7.78;7.10;;;27.90;95.30;;;;;;5063079;28;20107;-31
2022/07/13 09:00:08;;;;;;;7.07;6.43;;;28.00;92.00;;;;;;5061659;28;20497;-35
2022/07/13 09:02:34;;;;;;;7.68;6.20;;;27.90;92.20;;;;;;5069584;28;20040;-36
2022/07/13 09:05:04;;;;;;;7.15;6.55;;;28.00;93.10;;;;;;5062215;28;20049;-36
2022/07/13 09:07:31;;;;;;;6.00;5.32;;;28.10;91.50;;;;;;5115797;22;20048;-30
2022/07/13 09:09:57;;;;;;;7.20;6.50;;;28.40;92.90;;;;;;5051095;28;20037;-28
2022/07/13 09:12:24;;;;;;;8.68;6.60;;;28.60;91.00;;;;;;5046241;28;20086;-28
2022/07/13 09:14:54;;;;;;;7.65;6.90;;;28.70;92.20;;;;;;5046558;28;20477;-29
2022/07/13 09:17:43;;;;;;;8.00;6.25;;;28.90;90.10;;;;;;5039114;28;20679;-28
2022/07/13 09:20:15;;;;;;;6.75;6.15;;;28.90;91.80;;;;;;5051236;28;20044;-28
2022/07/13 09:22:55;;;;;;;7.20;6.47;;;29.10;90.70;;;;;;5042751;28;20513;-29
2022/07/13 09:25:33;;;;;;;8.02;6.10;;;29.10;88.80;;;;;;5047505;28;20079;-28
2022/07/13 09:28:16;;;;;;;6.97;6.38;;;29.20;91.50;;;;;;5045435;28;20098;-29
2022/07/13 09:30:45;;;;;;;7.03;6.43;;;29.40;88.20;;;;;;5042678;28;20045;-29
2022/07/13 09:33:11;;;;;;;7.30;6.60;;;29.50;90.90;;;;;;5046544;28;20569;-29
2022/07/13 09:35:45;;;;;;;6.53;6.00;;;29.70;90.90;;;;;;5052669;28;20119;-29
2022/07/13 09:38:27;;;;;;;9.45;6.38;;;30.00;90.20;;;;;;5047380;28;20076;-29
2022/07/13 09:40:53;;;;;;;5.53;5.13;;;30.30;88.90;;;;;;5041260;28;20124;-30
2022/07/13 09:46:10;;;;;;;6.75;6.05;;;30.60;85.50;;;;;;5040820;28;20383;-30
2022/07/13 09:48:39;;;;;;;7.00;6.25;;;30.90;83.10;;;;;;5047051;28;20044;-30
2022/07/13 09:51:11;;;;;;;6.72;5.68;;;30.90;79.10;;;;;;5046444;28;20113;-30
2022/07/13 09:53:37;;;;;;;6.95;5.30;;;30.90;82.40;;;;;;5041341;28;20050;-30
2022/07/13 09:56:05;;;;;;;6.45;4.90;;;31.10;82.50;;;;;;5044425;28;20045;-30
2022/07/13 09:58:37;;;;;;;5.20;4.50;;;31.20;73.00;;;;;;5049872;28;20078;-29
2022/07/13 10:01:06;;;;;;;5.50;4.35;;;31.10;66.80;;;;;;5047870;28;20041;-29
2022/07/13 10:03:32;;;;;;;5.43;3.75;;;31.10;67.20;;;;;;5044292;28;20041;-29
2022/07/13 10:06:00;;;;;;;4.38;3.97;;;31.00;64.00;;;;;;5049663;28;20174;-29
2022/07/13 10:08:26;;;;;;;4.35;3.90;;;31.10;61.50;;;;;;5051276;28;20106;-29
2022/07/13 10:10:52;;;;;;;4.18;3.78;;;31.00;59.90;;;;;;5052141;28;20091;-29
2022/07/13 10:13:18;;;;;;;4.80;4.03;;;31.10;60.10;;;;;;5043482;28;20449;-35
2022/07/13 10:15:45;;;;;;;4.15;3.67;;;31.10;59.80;;;;;;5049712;28;20032;-29
2022/07/13 10:18:24;;;;;;;3.92;3.25;;;31.30;59.80;;;;;;5050791;28;20048;-30
2022/07/13 10:21:04;;;;;;;4.50;3.33;;;31.10;57.00;;;;;;5043626;28;20052;-29
2022/07/13 10:23:38;;;;;;;3.55;3.10;;;31.40;57.40;;;;;;5051641;28;20144;-30
2022/07/13 10:26:16;;;;;;;3.95;3.50;;;31.70;58.30;;;;;;5052205;28;20037;-29
2022/07/13 10:28:42;;;;;;;4.40;3.97;;;31.90;56.60;;;;;;5048054;28;20037;-30
2022/07/13 10:31:29;;;;;;;4.10;3.78;;;31.80;55.20;;;;;;5043744;28;20033;-29
2022/07/13 10:33:55;;;;;;;4.97;3.97;;;31.60;52.40;;;;;;5045823;28;20571;-29
2022/07/13 10:36:51;;;;;;;4.53;3.55;;;31.60;54.90;;;;;;5048833;28;20172;-30
2022/07/13 10:39:22;;;;;;;4.20;3.80;;;31.40;54.50;;;;;;5051320;28;20124;-29
2022/07/13 10:42:00;;;;;;;3.75;3.35;;;31.70;56.60;;;;;;5048562;28;20037;-30
2022/07/13 10:44:36;;;;;;;4.95;3.70;;;31.90;55.30;;;;;;5034190;28;20042;-30
2022/07/13 10:47:04;;;;;;;4.80;3.88;;;32.00;54.90;;;;;;5047770;28;20045;-30
2022/07/13 10:49:38;;;;;;;4.50;4.20;;;32.10;54.40;;;;;;5048118;28;20071;-30
2022/07/13 10:52:23;;;;;;;4.88;4.30;;;32.30;54.10;;;;;;5051649;28;20522;-30
2022/07/13 10:55:05;;;;;;;4.18;3.78;;;32.50;53.80;;;;;;5045350;28;20043;-30
2022/07/13 10:57:33;;;;;;;4.53;3.42;;;32.50;53.80;;;;;;5046079;28;20072;-31
2022/07/13 11:00:16;;;;;;;5.78;3.20;;;32.70;53.10;;;;;;5045474;28;20102;-30
2022/07/13 11:02:50;;;;;;;3.75;3.40;;;33.00;50.70;;;;;;5030920;28;20119;-30
2022/07/13 11:05:18;;;;;;;4.20;3.08;;;32.80;51.70;;;;;;5045617;28;20060;-29
2022/07/13 11:07:49;;;;;;;3.20;2.92;;;32.40;52.10;;;;;;5044368;28;20033;-29
2022/07/13 11:10:26;;;;;;;3.45;3.08;;;32.00;50.90;;;;;;5036473;28;20037;-29
2022/07/13 11:13:01;;;;;;;3.00;2.70;;;32.10;50.60;;;;;;5043504;28;20502;-29
2022/07/13 11:15:53;;;;;;;7.57;2.95;;;31.80;50.30;;;;;;5040226;28;20055;-30
2022/07/13 11:18:24;;;;;;;3.85;3.50;;;31.20;52.20;;;;;;5039588;28;20030;-29
2022/07/13 11:21:05;;;;;;;6.00;3.58;;;30.60;52.00;;;;;;5039261;28;20037;-29
2022/07/13 11:26:52;;;;;;;3.05;2.83;;;30.30;57.50;;;;;;5044939;28;20178;-30
2022/07/13 11:29:48;;;;;;;4.88;3.05;;;30.80;55.40;;;;;;5048388;28;20342;-30
2022/07/13 11:32:18;;;;;;;3.00;2.80;;;30.90;55.40;;;;;;5043293;28;20392;-30
2022/07/13 11:34:46;;;;;;;3.00;2.67;;;31.20;53.80;;;;;;5042657;28;20037;-30
2022/07/13 11:37:22;;;;;;;6.07;2.50;;;31.30;52.50;;;;;;5032917;28;20101;-30
2022/07/13 11:39:48;;;;;;;2.80;2.60;;;31.40;51.50;;;;;;5050733;28;20045;-30
2022/07/13 11:42:14;;;;;;;2.20;2.10;;;31.80;50.60;;;;;;5040486;28;20471;-30
2022/07/13 11:44:40;;;;;;;3.05;2.22;;;32.10;51.40;;;;;;5047468;28;20398;-30
2022/07/13 11:47:09;;;;;;;3.15;2.63;;;32.20;49.30;;;;;;5048518;28;20106;-30
2022/07/13 11:49:42;;;;;;;5.10;2.45;;;32.40;49.10;;;;;;5023173;28;20045;-30
2022/07/13 11:52:08;;;;;;;2.55;2.17;;;32.60;47.60;;;;;;5042829;28;20045;-30
2022/07/13 11:54:33;;;;;;;2.63;2.10;;;32.60;48.10;;;;;;5047094;28;20033;-29
2022/07/13 11:56:59;;;;;;;2.13;2.00;;;32.40;47.30;;;;;;5046388;28;20120;-29
2022/07/13 11:59:42;;;;;;;2.28;2.03;;;32.60;47.40;;;;;;5052511;28;20051;-29
2022/07/13 12:02:11;;;;;;;2.15;1.83;;;32.70;46.80;;;;;;5046068;28;20397;-29
2022/07/13 12:04:48;;;;;;;2.78;1.90;;;32.90;47.80;;;;;;5037771;28;20037;-29
2022/07/13 12:07:19;;;;;;;3.63;2.15;;;33.30;46.20;;;;;;5046278;28;20064;-29
2022/07/13 12:09:59;;;;;;;3.17;2.22;;;33.60;45.90;;;;;;5045345;28;20037;-29
2022/07/13 12:12:30;;;;;;;2.15;1.95;;;33.20;45.30;;;;;;5034474;28;20042;-29
2022/07/13 12:14:57;;;;;;;1.92;1.70;;;33.30;46.50;;;;;;5051913;28;20079;-29
2022/07/13 12:17:24;;;;;;;3.03;2.00;;;33.10;45.40;;;;;;5046656;28;20447;-29
2022/07/13 12:19:51;;;;;;;2.30;1.98;;;33.10;45.30;;;;;;5041903;28;20115;-29
2022/07/13 12:22:21;;;;;;;3.58;2.20;;;33.30;44.50;;;;;;5043124;28;20037;-30
2022/07/13 12:24:47;;;;;;;3.53;2.10;;;33.40;44.00;;;;;;5035863;28;20090;-29
2022/07/13 12:27:39;;;;;;;3.00;1.98;;;32.80;44.50;;;;;;5034602;28;20044;-29
2022/07/13 12:30:10;;;;;;;1.90;1.80;;;32.20;43.80;;;;;;5031354;28;20057;-29
2022/07/13 12:32:56;;;;;;;2.65;1.90;;;32.10;45.70;;;;;;5042761;28;20310;-29
2022/07/13 12:35:29;;;;;;;2.22;2.03;;;32.40;44.50;;;;;;5041649;28;20041;-29
2022/07/13 12:37:57;;;;;;;2.50;1.83;;;32.50;44.70;;;;;;5044332;28;20064;-29
2022/07/13 12:40:37;;;;;;;2.30;1.83;;;33.10;44.80;;;;;;5045036;28;20397;-30
2022/07/13 12:43:03;;;;;;;2.25;2.05;;;33.50;44.60;;;;;;5044522;28;20560;-29
2022/07/13 12:45:30;;;;;;;2.97;2.03;;;33.70;44.80;;;;;;5046021;28;20037;-30
2022/07/13 12:47:56;;;;;;;2.83;2.22;;;34.00;44.40;;;;;;5045197;28;20049;-29
2022/07/13 12:50:26;;;;;;;1.90;1.80;;;34.00;44.40;;;;;;5044914;28;20453;-30
2022/07/13 12:53:01;;;;;;;3.00;2.35;;;33.90;45.10;;;;;;5046944;28;20025;-29
2022/07/13 12:55:27;;;;;;;2.75;2.00;;;34.20;45.30;;;;;;5048778;28;20037;-29
2022/07/13 12:57:56;;;;;;;2.75;1.88;;;34.00;44.20;;;;;;5047086;28;20040;-30
2022/07/13 13:00:28;;;;;;;4.47;2.08;;;33.80;44.20;;;;;;5046014;28;20069;-30
2022/07/13 13:02:54;;;;;;;2.25;2.05;;;33.70;44.10;;;;;;5047264;28;20130;-30
2022/07/13 13:05:19;;;;;;;2.85;2.25;;;33.50;45.60;;;;;;5045233;28;20514;-30
2022/07/13 13:07:45;;;;;;;2.28;2.03;;;33.10;44.40;;;;;;5048119;28;20041;-30
2022/07/13 13:10:11;;;;;;;2.60;2.40;;;33.10;45.90;;;;;;5044442;28;20482;-30